createdAt,value
2023-03-27T00:02:51.103Z,15.67
2023-03-27T00:07:55.748Z,21.60
2023-03-27T00:12:58.801Z,13.30
2023-03-27T00:18:05.084Z,11.30
2023-03-27T00:23:07.432Z,10.13
2023-03-27T00:28:09.758Z,13.17
2023-03-27T00:33:13.086Z,26.80
2023-03-27T00:38:16.569Z,34.13
2023-03-27T00:43:33.896Z,12.67
2023-03-27T00:48:37.584Z,10.97
2023-03-27T00:53:40.193Z,14.37
2023-03-27T00:58:55.602Z,8.80
2023-03-27T01:04:03.919Z,14.27
2023-03-27T01:09:06.446Z,14.53
2023-03-27T01:14:32.142Z,17.47
2023-03-27T01:20:05.467Z,12.67
2023-03-27T01:25:17.833Z,12.77
2023-03-27T01:30:36.460Z,8.23
2023-03-27T01:36:13.250Z,9.90
2023-03-27T01:41:18.700Z,10.63
2023-03-27T01:46:43.565Z,6.57
2023-03-27T01:51:52.027Z,6.20
2023-03-27T01:57:17.253Z,5.93
2023-03-27T02:02:26.080Z,5.77
2023-03-27T02:07:42.359Z,3.83
2023-03-27T02:12:53.583Z,7.83
2023-03-27T02:18:08.015Z,5.90
2023-03-27T02:23:10.457Z,3.83
2023-03-27T02:28:20.862Z,7.67
2023-03-27T02:34:01.964Z,8.93
2023-03-27T02:39:17.386Z,7.80
2023-03-27T02:44:27.305Z,5.60
2023-03-27T02:49:54.225Z,7.43
2023-03-27T02:55:10.448Z,6.87
2023-03-27T03:00:37.453Z,3.47
2023-03-27T03:05:58.747Z,7.80
2023-03-27T03:11:06.861Z,4.57
2023-03-27T03:16:10.244Z,6.83
2023-03-27T03:21:12.658Z,3.10
2023-03-27T03:26:17.053Z,2.73
2023-03-27T03:31:22.566Z,2.90
2023-03-27T03:36:30.799Z,5.90
2023-03-27T03:41:33.609Z,2.43
2023-03-27T03:46:37.476Z,5.10
2023-03-27T03:51:41.059Z,3.23
2023-03-27T03:56:43.713Z,2.77
2023-03-27T04:01:46.138Z,3.37
2023-03-27T04:06:48.689Z,4.30
2023-03-27T04:11:51.163Z,1.87
2023-03-27T04:17:13.705Z,3.23
2023-03-27T04:22:19.245Z,2.93
2023-03-27T04:27:22.087Z,2.23
2023-03-27T04:32:36.842Z,4.23
2023-03-27T04:37:58.001Z,2.90
2023-03-27T04:43:14.380Z,5.77
2023-03-27T04:48:16.678Z,3.47
2023-03-27T04:53:23.618Z,2.90
2023-03-27T04:58:26.064Z,3.53
2023-03-27T05:03:30.419Z,3.70
2023-03-27T05:08:37.911Z,3.63
2023-03-27T05:13:40.943Z,2.73
2023-03-27T05:18:47.531Z,3.70
2023-03-27T05:23:49.855Z,2.57
2023-03-27T05:28:59.669Z,1.67
2023-03-27T05:34:05.694Z,2.83
2023-03-27T05:39:09.122Z,3.00
2023-03-27T05:44:15.094Z,4.17
2023-03-27T05:49:20.370Z,1.80
2023-03-27T05:54:27.383Z,1.30
2023-03-27T05:59:34.846Z,5.87
2023-03-27T06:04:52.175Z,4.53
2023-03-27T06:10:01.792Z,4.80
2023-03-27T06:15:08.599Z,12.87
2023-03-27T06:20:16.897Z,4.70
2023-03-27T06:25:28.092Z,2.33
2023-03-27T06:30:31.225Z,1.80
2023-03-27T06:36:00.555Z,0.97
2023-03-27T06:41:09.575Z,3.07
2023-03-27T06:46:44.673Z,0.97
2023-03-27T06:52:20.035Z,0.43
2023-03-27T06:57:23.410Z,0.93
2023-03-27T07:02:31.622Z,2.00
2023-03-27T07:08:21.833Z,2.33
2023-03-27T07:13:28.058Z,2.00
2023-03-27T07:18:32.555Z,1.97
2023-03-27T07:23:35.015Z,1.97
2023-03-27T07:28:40.543Z,1.53
2023-03-27T07:33:47.569Z,0.97
2023-03-27T07:38:49.916Z,0.63
2023-03-27T07:43:59.504Z,1.20
2023-03-27T07:49:08.669Z,1.03
2023-03-27T07:54:13.367Z,2.83
2023-03-27T07:59:21.509Z,1.07
2023-03-27T08:04:24.655Z,1.20
2023-03-27T08:09:38.231Z,2.37
2023-03-27T08:14:40.779Z,2.97
2023-03-27T08:19:55.483Z,0.73
2023-03-27T08:24:58.776Z,2.40
2023-03-27T08:30:03.907Z,2.40
2023-03-27T08:35:11.298Z,3.03
2023-03-27T08:40:26.026Z,1.60
2023-03-27T08:46:24.935Z,4.40
2023-03-27T08:51:56.825Z,3.07
2023-03-27T08:57:01.105Z,1.87
2023-03-27T09:02:37.406Z,2.60
2023-03-27T09:08:07.028Z,1.40
2023-03-27T09:13:16.079Z,2.47
2023-03-27T09:18:30.122Z,99.27
2023-03-27T09:23:45.280Z,1.37
2023-03-27T09:29:31.270Z,3.33
2023-03-27T09:34:45.068Z,1.63
2023-03-27T09:39:52.176Z,1.37
2023-03-27T09:45:04.581Z,2.77
2023-03-27T09:50:27.696Z,2.13
2023-03-27T09:55:54.061Z,2.17
2023-03-27T10:01:19.973Z,0.90
2023-03-27T10:06:38.860Z,2.90
2023-03-27T10:12:09.404Z,1.17
2023-03-27T10:17:22.457Z,0.50
2023-03-27T10:22:38.352Z,0.30
2023-03-27T10:27:43.734Z,0.93
2023-03-27T10:33:33.928Z,0.50
2023-03-27T10:38:56.299Z,1.00
2023-03-27T10:44:17.501Z,0.87
2023-03-27T10:49:33.673Z,0.73
2023-03-27T10:54:47.566Z,3.10
2023-03-27T11:00:10.748Z,0.70
2023-03-27T11:05:26.085Z,5.43
2023-03-27T11:10:37.942Z,1.47
2023-03-27T11:16:16.557Z,0.70
2023-03-27T11:21:47.307Z,0.47
2023-03-27T11:26:59.925Z,0.80
2023-03-27T11:32:17.979Z,1.33
2023-03-27T11:37:43.187Z,1.17
2023-03-27T11:42:48.202Z,1.37
2023-03-27T11:48:17.343Z,0.40
2023-03-27T11:53:34.916Z,2.33
2023-03-27T11:59:19.859Z,1.20
2023-03-27T12:04:43.444Z,1.37
2023-03-27T12:10:28.456Z,1.20
2023-03-27T12:15:57.928Z,0.80
2023-03-27T12:21:17.711Z,3.27
2023-03-27T12:27:22.030Z,0.60
2023-03-27T12:32:46.520Z,2.43
2023-03-27T12:38:05.398Z,1.13
2023-03-27T12:43:26.772Z,1.63
2023-03-27T12:49:08.352Z,1.03
2023-03-27T12:54:29.656Z,1.47
2023-03-27T12:59:51.514Z,1.70
2023-03-27T13:05:23.970Z,1.47
2023-03-27T13:10:57.885Z,4.17
2023-03-27T13:16:19.515Z,6.13
2023-03-27T13:21:44.029Z,4.83
2023-03-27T13:26:55.206Z,3.00
2023-03-27T13:32:22.156Z,2.27
2023-03-27T13:37:38.048Z,12.17
2023-03-27T13:42:50.897Z,8.07
2023-03-27T13:48:07.716Z,5.83
2023-03-27T13:53:43.570Z,8.73
2023-03-27T13:59:09.273Z,7.53
2023-03-27T14:04:41.365Z,26.47
2023-03-27T14:10:12.782Z,3.73
2023-03-27T14:15:39.948Z,2.73
2023-03-27T14:21:01.832Z,14.20
2023-03-27T14:26:18.588Z,14.33
2023-03-27T14:31:23.889Z,51.03
2023-03-27T14:36:42.094Z,63.10
2023-03-27T14:42:01.387Z,12.33
2023-03-27T14:47:11.980Z,34.33
2023-03-27T14:52:30.345Z,8.57
2023-03-27T14:57:51.095Z,4.30
2023-03-27T15:02:55.225Z,1.50
2023-03-27T15:08:00.180Z,4.17
2023-03-27T15:13:36.372Z,2.10
2023-03-27T15:18:55.683Z,3.10
2023-03-27T15:24:13.458Z,0.73
2023-03-27T15:29:39.062Z,5.67
2023-03-27T15:35:03.386Z,1.87
2023-03-27T15:40:14.203Z,0.90
2023-03-27T15:45:21.562Z,4.10
2023-03-27T15:50:24.676Z,2.30
2023-03-27T15:55:40.039Z,5.97
2023-03-27T16:00:48.161Z,2.90
2023-03-27T16:06:28.810Z,5.20
2023-03-27T16:11:45.874Z,5.40
2023-03-27T16:16:49.600Z,4.30
2023-03-27T16:21:56.298Z,4.43
2023-03-27T16:26:58.649Z,2.73
2023-03-27T16:32:01.041Z,2.30
2023-03-27T16:37:03.759Z,4.07
2023-03-27T16:42:06.111Z,30.77
2023-03-27T16:47:08.595Z,14.60
2023-03-27T16:52:10.911Z,90.77
2023-03-27T16:57:13.260Z,8.40
2023-03-27T17:02:15.710Z,15.37
2023-03-27T17:07:18.137Z,4.93
2023-03-27T17:12:20.598Z,4.27
2023-03-27T17:17:23.627Z,3.97
2023-03-27T17:22:26.646Z,6.93
2023-03-27T17:27:29.236Z,6.80
2023-03-27T17:32:31.782Z,8.20
2023-03-27T17:37:35.516Z,19.13
2023-03-27T17:42:37.843Z,3.43
2023-03-27T17:47:40.282Z,9.07
2023-03-27T17:52:42.849Z,10.83
2023-03-27T17:57:53.102Z,134.00
2023-03-27T18:03:01.182Z,250.13
2023-03-27T18:08:03.868Z,82.03
2023-03-27T18:13:06.244Z,42.33
2023-03-27T18:18:08.537Z,34.87
2023-03-27T18:23:11.005Z,18.23
2023-03-27T18:28:13.588Z,19.97
2023-03-27T18:33:16.431Z,23.37
2023-03-27T18:38:18.745Z,28.80
2023-03-27T18:43:21.987Z,96.83
2023-03-27T18:48:24.872Z,48.70
2023-03-27T18:53:27.429Z,97.33
2023-03-27T18:58:33.101Z,32.10
2023-03-27T19:03:36.415Z,71.40
2023-03-27T19:08:42.017Z,53.90
2023-03-27T19:13:44.376Z,57.80
2023-03-27T19:18:55.598Z,44.03
2023-03-27T19:24:23.900Z,36.77
2023-03-27T19:29:27.203Z,35.10
2023-03-27T19:34:42.058Z,130.90
2023-03-27T19:39:44.914Z,97.77
2023-03-27T19:44:47.199Z,65.57
2023-03-27T19:49:49.511Z,80.83
2023-03-27T19:54:53.502Z,148.73
2023-03-27T19:59:58.316Z,83.90
2023-03-27T20:05:00.971Z,121.57
2023-03-27T20:10:04.217Z,80.40
2023-03-27T20:15:12.168Z,145.40
2023-03-27T20:20:18.725Z,156.10
2023-03-27T20:25:21.172Z,111.97
2023-03-27T20:30:24.614Z,103.63
2023-03-27T20:35:27.449Z,98.53
2023-03-27T20:40:36.934Z,95.27
2023-03-27T20:45:45.658Z,72.77
2023-03-27T20:50:52.422Z,38.30
2023-03-27T20:56:04.420Z,50.03
2023-03-27T21:01:09.834Z,44.47
2023-03-27T21:06:15.602Z,43.93
2023-03-27T21:11:17.940Z,43.57
2023-03-27T21:16:20.288Z,45.53
2023-03-27T21:21:22.933Z,41.97
2023-03-27T21:26:25.264Z,55.03
2023-03-27T21:31:29.939Z,32.57
2023-03-27T21:36:32.691Z,38.83
2023-03-27T21:41:35.266Z,31.20
2023-03-27T21:46:37.648Z,27.67
2023-03-27T21:51:39.953Z,27.13
2023-03-27T21:56:42.276Z,25.33
2023-03-27T22:01:44.605Z,20.57
2023-03-27T22:06:46.982Z,17.33
2023-03-27T22:11:49.692Z,17.20
2023-03-27T22:16:52.149Z,18.43
2023-03-27T22:21:54.437Z,19.93
2023-03-27T22:26:57.037Z,23.13
2023-03-27T22:31:59.697Z,13.27
2023-03-27T22:37:02.985Z,15.70
2023-03-27T22:42:05.753Z,13.53
2023-03-27T22:47:08.312Z,11.80
2023-03-27T22:52:10.719Z,9.13
2023-03-27T22:57:13.084Z,9.30
2023-03-27T23:02:15.568Z,10.17
2023-03-27T23:07:17.901Z,7.90
2023-03-27T23:12:20.307Z,8.90
2023-03-27T23:17:22.687Z,8.27
2023-03-27T23:22:25.799Z,7.63
2023-03-27T23:27:28.242Z,2.33
2023-03-27T23:32:33.422Z,5.87
2023-03-27T23:37:36.009Z,2.37
2023-03-27T23:42:38.273Z,3.00
2023-03-27T23:47:40.785Z,4.73
2023-03-27T23:52:43.165Z,13.20
2023-03-27T23:57:45.777Z,3.27
